Monday, February 8, 2016, 1:40 PM EST
Back to Local

KMPO, Mt Pocono Pocono Mountains

Location: Pocono Summit, PA, United States Lat: 41.133
Local Time: 1:40 PM EST (18:40 GMT) Lon: -75.383
Time Zone: US/Eastern Elev: 1915 ft

Show me the last for .
Show Coded

Time T Td Feel RH Dir Speed Gust Alt SLP Vis Weather Sky Remarks
2016-02-08 12:53 35 21 28 56 70° 9 - 29.64 29.69 10 OVC046 6-hr Min Temp (1pm): 28.9°F
6-hr Max Temp (1pm): 35.1°F
2016-02-08 12:02 33 21 25 60 50° 10 - 29.69 - 10 SCT022 OVC042 None
2016-02-08 11:53 33 22 26 63 30° 8 - 29.70 29.75 10 BKN020 OVC042 None
2016-02-08 10:53 31 22 23 68 80° 8 - 29.73 29.79 10 OVC017 None
2016-02-08 09:53 30 22 22 71 70° 9 - 29.74 29.80 10 OVC015 None
2016-02-08 08:53 29 22 20 74 60° 10 - 29.74 29.79 10 OVC015 None
2016-02-08 07:53 29 21 21 71 80° 8 - 29.73 29.78 10 OVC017 None
2016-02-08 06:53 29 21 20 71 60° 10 - 29.73 29.78 10 OVC016 6-hr Min Temp (7am): 28.0°F
6-hr Max Temp (7am): 32.0°F
2016-02-08 05:53 29 21 15 71 70° 13 22 29.70 29.75 10 BKN015 None
2016-02-08 05:51 28 21 15 74 70° 17 22 29.70 - 10 BKN015 None
2016-02-08 04:53 28 19 17 68 50° 14 - 29.70 29.75 10 CLR None
2016-02-08 03:53 29 19 17 66 50° 16 - 29.71 29.75 10 CLR None
2016-02-08 02:53 30 19 19 63 60° 15 - 29.75 29.79 10 CLR None
2016-02-08 01:53 31 17 21 55 70° 13 - 29.78 29.82 10 CLR None
2016-02-08 00:53 32 17 23 53 70° 12 - 29.81 29.85 10 CLR 6-hr Min Temp (1am): 30.0°F
6-hr Max Temp (1am): 35.1°F
2016-02-07 23:53 32 16 23 51 60° 12 - 29.85 29.89 10 CLR 24-hr Min Temp (12am): 19.9°F
24-hr Max Temp (12am): 44.1°F
2016-02-07 22:53 30 17 24 58 60° 6 - 29.87 29.92 10 CLR None
2016-02-07 21:53 32 17 26 53 80° 6 - 29.89 29.94 10 CLR None
2016-02-07 20:53 33 17 28 51 90° 6 - 29.92 29.97 10 CLR None
2016-02-07 19:53 34 18 28 51 100° 7 - 29.92 29.99 10 CLR None
2016-02-07 18:53 34 18 31 51 100° 3 - 29.94 30.00 10 CLR 6-hr Min Temp (7pm): 30.9°F
6-hr Max Temp (7pm): 44.1°F
2016-02-07 17:53 36 17 33 45 100° 3 - 29.94 29.99 10 CLR None
2016-02-07 16:53 39 18 35 42 140° 6 - 29.95 30.00 10 CLR None
2016-02-07 15:53 40 19 37 42 170° 5 - 29.96 30.01 10 CLR None
2016-02-07 14:53 42 19 37 39 130° 9 - 29.98 30.03 10 CLR None
2016-02-07 13:53 42 19 - 39 - Calm - 30.01 30.06 10 CLR None

Support USWX by starting your Amazon purchase here.